Time;durP1;ratioP1;P1;durP2;ratioP2;P2;SDS_P1;SDS_P2;PMS_P1;PMS_P2;Temp;Humidity;BMP_temperature;BMP_pressure;BME280_temperature;BME280_humidity;BME280_pressure;Samples;Min_cycle;Max_cycle;Signal;HPM_P1;HPM_P2
2022/08/04 00:01:17;;;;;;;3.05;1.50;;;25.60;99.90;;;;;;1869545;75;21632;-80
2022/08/04 00:03:51;;;;;;;3.25;1.57;;;25.60;99.90;;;;;;1871138;75;21604;-80
2022/08/04 00:06:25;;;;;;;3.83;1.32;;;25.60;99.90;;;;;;1864918;76;21521;-79
2022/08/04 00:08:59;;;;;;;5.22;1.30;;;25.60;99.90;;;;;;1869702;75;21554;-78
2022/08/04 00:11:32;;;;;;;3.35;1.70;;;25.60;99.90;;;;;;1841576;77;22406;-80
2022/08/04 00:14:06;;;;;;;2.98;1.32;;;25.60;99.90;;;;;;1828656;77;21185;-80
2022/08/04 00:16:39;;;;;;;3.02;1.98;;;25.60;99.90;;;;;;1820373;77;21551;-80
2022/08/04 00:19:12;;;;;;;3.80;1.30;;;25.60;99.90;;;;;;1822016;77;21633;-79
2022/08/04 00:21:46;;;;;;;4.15;1.37;;;25.70;99.90;;;;;;1827722;77;21715;-80
2022/08/04 00:24:18;;;;;;;4.22;1.40;;;25.70;99.90;;;;;;1774323;79;21091;-80
2022/08/04 00:26:49;;;;;;;4.08;1.60;;;25.70;99.90;;;;;;1776171;80;21182;-80
2022/08/04 00:29:22;;;;;;;4.65;1.50;;;25.70;99.90;;;;;;1772219;79;21119;-80
2022/08/04 00:31:55;;;;;;;3.77;1.40;;;25.70;99.90;;;;;;1830199;78;22170;-79
2022/08/04 00:34:28;;;;;;;2.55;1.40;;;25.70;99.90;;;;;;1834748;77;21174;-82
2022/08/04 00:37:00;;;;;;;3.42;1.32;;;25.70;99.90;;;;;;1808447;79;21139;-80
2022/08/04 00:39:31;;;;;;;5.20;1.50;;;25.80;99.90;;;;;;1807155;79;21268;-82
2022/08/04 00:42:03;;;;;;;6.17;1.75;;;25.80;99.90;;;;;;1809259;78;21181;-80
2022/08/04 00:44:36;;;;;;;2.70;1.32;;;25.80;99.90;;;;;;1776889;79;21130;-82
2022/08/04 00:47:11;;;;;;;2.65;1.17;;;25.90;99.90;;;;;;1767541;80;21199;-79
2022/08/04 00:49:44;;;;;;;6.45;1.37;;;25.90;99.90;;;;;;1769208;80;21159;-82
2022/08/04 00:52:14;;;;;;;2.83;1.27;;;25.90;99.90;;;;;;1767482;79;21176;-80
2022/08/04 00:54:49;;;;;;;2.67;1.32;;;26.00;99.90;;;;;;1766095;80;21268;-80
2022/08/04 00:57:22;;;;;;;4.83;1.30;;;26.00;99.90;;;;;;1764125;80;21107;-80
2022/08/04 00:59:56;;;;;;;4.25;1.17;;;26.00;99.90;;;;;;1772939;80;21276;-80
2022/08/04 01:02:30;;;;;;;2.55;1.30;;;26.10;99.90;;;;;;1771257;79;21570;-81
2022/08/04 01:05:03;;;;;;;2.87;1.20;;;26.10;99.90;;;;;;1770378;80;21186;-79
2022/08/04 01:07:37;;;;;;;3.08;1.05;;;26.20;99.90;;;;;;1770807;80;21763;-82
2022/08/04 01:10:09;;;;;;;3.87;1.07;;;26.20;99.90;;;;;;1772815;80;21129;-81
2022/08/04 01:12:44;;;;;;;4.12;1.10;;;26.20;99.90;;;;;;1770648;79;21154;-80
2022/08/04 01:15:18;;;;;;;3.35;0.93;;;26.20;99.90;;;;;;1774537;79;21253;-81
2022/08/04 01:17:53;;;;;;;5.80;0.80;;;26.30;99.90;;;;;;1777607;80;21147;-80
2022/08/04 01:20:26;;;;;;;2.17;0.70;;;26.40;99.90;;;;;;1767263;80;21680;-80
2022/08/04 01:22:59;;;;;;;2.05;0.60;;;26.40;99.90;;;;;;1766656;80;21087;-80
2022/08/04 01:25:32;;;;;;;5.10;1.07;;;26.40;99.90;;;;;;1798042;79;21197;-81
2022/08/04 01:28:07;;;;;;;3.35;0.95;;;26.50;99.90;;;;;;1856904;76;21143;-80
2022/08/04 01:30:40;;;;;;;3.90;0.82;;;26.50;99.90;;;;;;1860978;76;21560;-80
2022/08/04 01:33:14;;;;;;;2.87;0.80;;;26.60;99.90;;;;;;1857832;76;21611;-80
2022/08/04 01:35:48;;;;;;;2.52;0.82;;;26.60;99.90;;;;;;1857621;76;21134;-80
2022/08/04 01:38:21;;;;;;;1.80;0.70;;;26.70;99.90;;;;;;1867612;76;21210;-80
2022/08/04 01:40:54;;;;;;;2.12;0.90;;;26.70;99.90;;;;;;1855774;76;21144;-81
2022/08/04 01:43:26;;;;;;;3.75;0.90;;;26.70;99.90;;;;;;1856956;76;21148;-80
2022/08/04 01:45:59;;;;;;;1.82;0.70;;;26.70;99.90;;;;;;1855933;76;21635;-81
2022/08/04 01:48:33;;;;;;;5.03;1.30;;;26.70;99.90;;;;;;1861293;76;21218;-79
2022/08/04 01:51:05;;;;;;;3.08;1.22;;;26.80;99.90;;;;;;1859396;76;21152;-79
2022/08/04 01:53:39;;;;;;;2.77;1.20;;;26.80;99.90;;;;;;1848302;76;21591;-80
2022/08/04 01:56:11;;;;;;;4.22;1.27;;;26.90;99.90;;;;;;1852142;76;21187;-81
2022/08/04 01:58:43;;;;;;;2.25;0.80;;;26.90;99.90;;;;;;1859110;76;21225;-82
2022/08/04 02:01:14;;;;;;;3.50;0.90;;;27.00;99.90;;;;;;1856335;76;21088;-81
2022/08/04 02:03:46;;;;;;;2.05;0.82;;;27.00;99.90;;;;;;1857091;76;21985;-81
2022/08/04 02:06:20;;;;;;;1.45;0.70;;;27.00;99.90;;;;;;1844627;76;21172;-81
2022/08/04 02:08:52;;;;;;;2.35;0.78;;;27.10;99.90;;;;;;1854369;76;21236;-80
2022/08/04 02:11:24;;;;;;;3.35;1.10;;;27.20;99.90;;;;;;1850957;76;21221;-80
2022/08/04 02:13:56;;;;;;;3.67;1.15;;;27.30;99.90;;;;;;1854038;76;21643;-78
2022/08/04 02:16:29;;;;;;;1.98;0.98;;;27.40;99.90;;;;;;1860051;76;21206;-78
2022/08/04 02:19:03;;;;;;;2.25;0.70;;;27.40;99.90;;;;;;1862497;76;21610;-78
2022/08/04 02:21:36;;;;;;;3.15;1.00;;;27.60;99.90;;;;;;1852842;76;21155;-79
2022/08/04 02:24:11;;;;;;;3.17;0.90;;;27.70;99.90;;;;;;1866556;75;21046;-80
2022/08/04 02:26:47;;;;;;;1.80;0.80;;;27.70;99.90;;;;;;1862029;77;21263;-79
2022/08/04 02:29:20;;;;;;;1.75;0.90;;;27.80;99.90;;;;;;1857464;76;21117;-80
2022/08/04 02:31:53;;;;;;;2.85;0.88;;;27.90;99.90;;;;;;1866025;75;21158;-78
2022/08/04 02:34:26;;;;;;;3.05;1.22;;;28.00;99.90;;;;;;1863288;75;21141;-80
2022/08/04 02:37:00;;;;;;;3.08;0.95;;;28.10;99.90;;;;;;1858903;76;21199;-78
2022/08/04 02:39:33;;;;;;;5.17;1.12;;;28.10;99.90;;;;;;1861028;75;21704;-80
2022/08/04 02:42:06;;;;;;;1.67;0.80;;;28.20;99.90;;;;;;1860645;75;21593;-77
2022/08/04 02:44:40;;;;;;;1.60;0.80;;;28.20;99.90;;;;;;1858337;76;21109;-80
2022/08/04 02:47:22;;;;;;;;;;;;;;;;;;;;;
2022/08/04 02:49:52;;;;;;;2.72;0.95;;;28.30;99.90;;;;;;1866106;76;21129;-80
2022/08/04 02:52:26;;;;;;;5.20;0.90;;;28.30;99.90;;;;;;1835188;77;21065;-78
2022/08/04 02:54:59;;;;;;;2.45;0.80;;;28.40;99.90;;;;;;1858895;76;21666;-79
2022/08/04 02:57:32;;;;;;;3.92;1.20;;;28.40;99.90;;;;;;1826782;77;21132;-79
2022/08/04 03:00:10;;;;;;;2.10;1.00;;;28.50;99.90;;;;;;1860716;76;21133;-81
2022/08/04 03:02:43;;;;;;;1.55;0.75;;;28.50;99.90;;;;;;1865795;75;21625;-79
2022/08/04 03:05:16;;;;;;;2.80;1.17;;;28.60;99.90;;;;;;1861525;75;21142;-81
2022/08/04 03:07:48;;;;;;;1.90;0.80;;;28.60;99.90;;;;;;1861405;76;21275;-80
2022/08/04 03:10:21;;;;;;;3.30;0.70;;;28.70;99.90;;;;;;1859558;77;21613;-80
2022/08/04 03:12:55;;;;;;;5.03;1.07;;;28.80;99.90;;;;;;1857625;76;21243;-80
2022/08/04 03:15:29;;;;;;;4.17;1.05;;;28.80;99.90;;;;;;1862126;76;21239;-79
2022/08/04 03:18:06;;;;;;;1.70;0.70;;;28.90;99.70;;;;;;1861304;76;21593;-79
2022/08/04 03:20:40;;;;;;;1.60;0.60;;;29.00;99.90;;;;;;1855540;75;21243;-79
2022/08/04 03:23:14;;;;;;;1.67;0.75;;;29.00;99.50;;;;;;1859214;77;21578;-78
2022/08/04 03:25:47;;;;;;;1.47;0.60;;;29.10;98.90;;;;;;1874104;75;21603;-79
2022/08/04 03:28:23;;;;;;;2.40;0.70;;;29.20;98.90;;;;;;1816691;78;21173;-80
2022/08/04 03:30:56;;;;;;;1.40;0.70;;;29.30;99.50;;;;;;1820920;77;21544;-81
2022/08/04 03:33:40;;;;;;;2.95;0.80;;;29.30;99.00;;;;;;1848048;76;21082;-79
2022/08/04 03:36:10;;;;;;;3.10;1.00;;;29.40;99.10;;;;;;1794582;79;21605;-79
2022/08/04 03:38:42;;;;;;;2.25;1.10;;;29.50;99.00;;;;;;1800964;78;21165;-78
2022/08/04 03:41:16;;;;;;;1.85;0.90;;;29.50;98.70;;;;;;1811433;78;21664;-79
2022/08/04 03:43:51;;;;;;;2.15;0.78;;;29.70;98.60;;;;;;1838101;76;21114;-80
2022/08/04 03:46:26;;;;;;;1.82;0.70;;;29.70;97.70;;;;;;1845162;76;21163;-80
2022/08/04 03:49:02;;;;;;;1.15;0.45;;;29.70;97.30;;;;;;1800575;79;21217;-80
2022/08/04 03:54:06;;;;;;;2.75;1.00;;;29.80;96.80;;;;;;1830694;77;21628;-80
2022/08/04 03:56:42;;;;;;;2.60;0.70;;;29.80;97.50;;;;;;1795612;78;21070;-80
2022/08/04 03:59:15;;;;;;;2.77;0.80;;;29.80;97.60;;;;;;1823353;78;21151;-80
2022/08/04 04:01:51;;;;;;;2.15;0.70;;;29.80;98.00;;;;;;1814078;77;21658;-78
2022/08/04 04:04:31;;;;;;;2.77;0.80;;;29.90;98.60;;;;;;1825356;76;21140;-78
2022/08/04 04:07:04;;;;;;;3.40;0.80;;;29.90;97.80;;;;;;1821238;77;21170;-80
2022/08/04 04:09:42;;;;;;;1.40;0.90;;;29.90;97.30;;;;;;1814909;79;21071;-80
2022/08/04 04:12:17;;;;;;;3.05;0.78;;;29.90;98.00;;;;;;1818660;77;21173;-79
2022/08/04 04:14:50;;;;;;;1.60;0.70;;;29.90;97.30;;;;;;1818248;77;21690;-79
2022/08/04 04:17:24;;;;;;;3.75;1.12;;;29.90;96.00;;;;;;1843618;76;21846;-80
2022/08/04 04:19:58;;;;;;;4.60;1.00;;;30.00;96.80;;;;;;1844204;76;21163;-80
2022/08/04 04:22:31;;;;;;;3.65;1.00;;;30.00;97.10;;;;;;1841746;77;21085;-79
2022/08/04 04:25:06;;;;;;;2.87;0.80;;;30.10;97.30;;;;;;1879439;75;21202;-80
2022/08/04 04:28:15;;;;;;;1.47;0.70;;;30.20;97.50;;;;;;1868623;76;21613;-79
2022/08/04 04:30:19;;;;;;;2.47;0.62;;;30.30;95.60;;;;;;1861418;75;21206;-78
2022/08/04 04:32:49;;;;;;;2.02;0.80;;;30.30;96.40;;;;;;1867851;75;21541;-80
2022/08/04 04:35:25;;;;;;;1.30;0.60;;;30.30;96.30;;;;;;1874039;75;21140;-79
2022/08/04 04:37:59;;;;;;;1.32;0.70;;;30.40;96.50;;;;;;1874327;75;21080;-79
2022/08/04 04:40:38;;;;;;;1.37;0.60;;;30.40;96.20;;;;;;1868560;75;21168;-80
2022/08/04 04:43:11;;;;;;;2.15;0.80;;;30.50;96.30;;;;;;1776752;80;21688;-77
2022/08/04 04:45:45;;;;;;;2.52;0.90;;;30.50;97.00;;;;;;1774342;80;22608;-79
2022/08/04 04:48:17;;;;;;;2.70;0.60;;;30.60;96.40;;;;;;1771450;80;21196;-80
2022/08/04 04:50:49;;;;;;;3.60;0.65;;;30.80;95.80;;;;;;1773247;80;21214;-80
2022/08/04 04:53:22;;;;;;;3.87;0.90;;;30.80;95.70;;;;;;1773657;80;21225;-79
2022/08/04 04:55:56;;;;;;;3.42;0.60;;;30.70;95.60;;;;;;1764527;80;21158;-79
2022/08/04 04:58:29;;;;;;;1.12;0.50;;;30.60;95.70;;;;;;1774337;79;21672;-78
2022/08/04 05:01:01;;;;;;;1.90;0.60;;;30.60;95.50;;;;;;1763410;80;21240;-79
2022/08/04 05:03:34;;;;;;;3.72;0.98;;;30.50;96.10;;;;;;1770330;80;21574;-78
2022/08/04 05:06:06;;;;;;;1.98;0.80;;;30.50;96.30;;;;;;1720769;82;21213;-80
2022/08/04 05:08:39;;;;;;;3.17;0.60;;;30.50;95.90;;;;;;1852428;75;21713;-80
2022/08/04 05:11:14;;;;;;;2.05;0.93;;;30.50;96.00;;;;;;1882080;75;21157;-79
2022/08/04 05:13:46;;;;;;;2.27;0.50;;;30.60;96.40;;;;;;1880573;75;21603;-79
2022/08/04 05:16:30;;;;;;;5.95;0.88;;;30.60;95.80;;;;;;1874975;75;21100;-76
2022/08/04 05:19:04;;;;;;;1.05;0.60;;;30.60;96.20;;;;;;1885320;75;21194;-78
2022/08/04 05:21:37;;;;;;;0.88;0.42;;;30.60;96.30;;;;;;1875296;75;21050;-78
2022/08/04 05:24:11;;;;;;;2.45;0.68;;;30.60;95.90;;;;;;1821277;77;21040;-80
2022/08/04 05:26:45;;;;;;;2.47;0.90;;;30.60;96.20;;;;;;1869306;75;21157;-79
2022/08/04 05:29:18;;;;;;;2.65;0.60;;;30.50;96.30;;;;;;1859353;77;21215;-81
2022/08/04 05:31:51;;;;;;;2.17;0.68;;;30.60;96.70;;;;;;1866957;77;21188;-83
2022/08/04 05:34:25;;;;;;;2.05;0.50;;;30.50;96.30;;;;;;1868575;76;21179;-83
2022/08/04 05:36:58;;;;;;;1.98;0.50;;;30.60;96.30;;;;;;1864649;75;21072;-82
2022/08/04 05:39:34;;;;;;;2.08;0.62;;;30.50;96.30;;;;;;1866548;75;21163;-84
2022/08/04 05:42:06;;;;;;;2.27;0.70;;;30.60;96.40;;;;;;1865406;75;21147;-84
2022/08/04 05:44:39;;;;;;;2.65;0.50;;;30.60;96.30;;;;;;1860342;77;21238;-83
2022/08/04 05:47:12;;;;;;;2.77;0.95;;;30.50;96.50;;;;;;1860848;76;21145;-83
2022/08/04 05:49:49;;;;;;;2.40;0.93;;;30.50;96.20;;;;;;1863308;75;21145;-83
2022/08/04 05:52:19;;;;;;;4.12;0.80;;;30.50;96.00;;;;;;1856746;76;21124;-83
2022/08/04 05:54:52;;;;;;;2.95;0.60;;;30.50;96.40;;;;;;1864843;77;21137;-83
2022/08/04 05:57:24;;;;;;;1.45;0.80;;;30.50;96.30;;;;;;1861567;76;21109;-82
2022/08/04 05:59:57;;;;;;;2.20;1.10;;;30.50;96.40;;;;;;1864928;76;21059;-83
2022/08/04 06:02:29;;;;;;;1.37;0.57;;;30.50;96.70;;;;;;1861073;77;21174;-83
2022/08/04 06:05:13;;;;;;;1.25;0.60;;;30.50;96.40;;;;;;1861510;76;21110;-78
2022/08/04 06:07:48;;;;;;;1.35;0.70;;;30.50;96.30;;;;;;1866439;75;21231;-79
2022/08/04 06:11:06;;;;;;;1.47;0.70;;;30.50;95.60;;;;;;1867411;75;21141;-80
2022/08/04 06:13:10;;;;;;;8.13;1.32;;;30.50;96.00;;;;;;1843681;75;21077;-79
2022/08/04 06:15:47;;;;;;;2.80;0.60;;;30.50;95.70;;;;;;1861467;75;21168;-80
2022/08/04 06:18:23;;;;;;;3.27;0.75;;;30.50;95.70;;;;;;1864391;75;21134;-81
2022/08/04 06:21:02;;;;;;;1.90;0.80;;;30.50;95.60;;;;;;1826533;77;21287;-81
2022/08/04 06:23:39;;;;;;;3.22;1.12;;;30.60;96.30;;;;;;1852175;76;21128;-79
2022/08/04 06:26:21;;;;;;;2.55;0.80;;;30.60;96.50;;;;;;1857087;74;21098;-81
2022/08/04 06:28:51;;;;;;;1.65;0.68;;;30.60;96.20;;;;;;1854253;76;21121;-80
2022/08/04 06:34:02;;;;;;;3.87;0.80;;;30.60;96.10;;;;;;1841180;76;21455;-78
2022/08/04 06:36:36;;;;;;;2.30;0.60;;;30.60;96.30;;;;;;1855133;76;21251;-79
2022/08/04 06:39:10;;;;;;;1.95;0.57;;;30.60;96.70;;;;;;1829772;78;21174;-79
2022/08/04 06:41:42;;;;;;;3.25;0.90;;;30.80;96.60;;;;;;1914828;75;21118;-80
2022/08/04 06:44:15;;;;;;;2.50;0.72;;;30.80;96.50;;;;;;1883799;75;21187;-80
2022/08/04 06:46:48;;;;;;;2.12;0.90;;;30.90;96.10;;;;;;1884075;76;21203;-78
2022/08/04 06:49:21;;;;;;;2.37;0.72;;;30.90;96.30;;;;;;1897856;75;21519;-80
2022/08/04 06:51:54;;;;;;;1.70;0.62;;;30.90;96.70;;;;;;1889935;75;21609;-79
2022/08/04 06:54:27;;;;;;;2.02;0.40;;;30.90;96.50;;;;;;1890700;75;21119;-79
2022/08/04 06:57:05;;;;;;;1.80;0.60;;;30.80;96.60;;;;;;1890685;75;21087;-79
2022/08/04 06:59:36;;;;;;;2.17;0.98;;;30.80;96.70;;;;;;1914537;75;21141;-79
2022/08/04 07:02:09;;;;;;;1.90;0.70;;;30.90;96.90;;;;;;1828616;78;21084;-80
2022/08/04 07:04:53;;;;;;;3.93;1.00;;;30.90;96.10;;;;;;1886812;75;21161;-79
2022/08/04 07:07:27;;;;;;;3.20;0.70;;;30.90;96.60;;;;;;1879218;76;21134;-78
2022/08/04 07:10:00;;;;;;;1.50;0.82;;;31.00;96.40;;;;;;1881876;75;21153;-78
2022/08/04 07:12:34;;;;;;;1.55;0.70;;;31.00;96.40;;;;;;1890494;75;21118;-82
2022/08/04 07:15:08;;;;;;;2.55;0.62;;;31.00;96.10;;;;;;1886355;75;21657;-81
2022/08/04 07:17:47;;;;;;;1.55;0.70;;;31.00;96.10;;;;;;1895686;75;21031;-77
2022/08/04 07:20:20;;;;;;;2.42;0.70;;;31.00;96.40;;;;;;1900173;75;21134;-79
2022/08/04 07:22:53;;;;;;;4.12;0.70;;;31.00;96.50;;;;;;1889474;75;21141;-81
2022/08/04 07:25:25;;;;;;;2.67;1.00;;;31.10;96.50;;;;;;1885903;76;21118;-78
2022/08/04 07:27:57;;;;;;;1.50;0.70;;;31.10;95.90;;;;;;1871789;74;21566;-80
2022/08/04 07:30:46;;;;;;;2.30;1.10;;;31.10;95.70;;;;;;1891734;75;21142;-79
2022/08/04 07:33:43;;;;;;;2.33;0.80;;;31.10;95.70;;;;;;1899703;75;21071;-80
2022/08/04 07:36:19;;;;;;;2.15;0.85;;;31.10;94.80;;;;;;1830831;77;21170;-79
2022/08/04 07:38:57;;;;;;;3.50;0.70;;;31.20;95.20;;;;;;1878372;75;21126;-80
2022/08/04 07:41:31;;;;;;;3.08;0.65;;;31.20;95.40;;;;;;1888928;74;21125;-79
2022/08/04 07:44:05;;;;;;;3.05;0.60;;;31.20;95.20;;;;;;1881646;75;21245;-80
2022/08/04 07:46:39;;;;;;;1.50;0.60;;;31.30;95.50;;;;;;1890273;74;21066;-79
2022/08/04 07:49:11;;;;;;;1.75;0.65;;;31.30;96.10;;;;;;1898731;74;21227;-82
2022/08/04 07:51:45;;;;;;;5.33;0.82;;;31.40;95.40;;;;;;1882333;75;21110;-80
2022/08/04 07:54:17;;;;;;;1.40;0.47;;;31.40;94.70;;;;;;1854581;77;21165;-82
2022/08/04 07:56:48;;;;;;;1.47;0.60;;;31.40;94.60;;;;;;1880350;75;21185;-82
2022/08/04 07:59:20;;;;;;;1.67;0.60;;;31.40;94.50;;;;;;1895262;75;21161;-82
2022/08/04 08:01:53;;;;;;;3.10;0.78;;;31.40;95.20;;;;;;1901980;75;21177;-82
2022/08/04 08:04:24;;;;;;;1.60;0.72;;;31.40;95.10;;;;;;1894370;75;21118;-79
2022/08/04 08:06:55;;;;;;;2.98;0.60;;;31.40;94.90;;;;;;1891488;75;21118;-81
2022/08/04 08:09:29;;;;;;;1.20;0.60;;;31.40;95.50;;;;;;1886103;75;21149;-81
2022/08/04 08:12:01;;;;;;;1.70;0.60;;;31.50;94.50;;;;;;1912665;75;21063;-81
2022/08/04 08:14:35;;;;;;;0.90;0.50;;;31.60;94.20;;;;;;1913561;75;21122;-82
2022/08/04 08:17:06;;;;;;;1.82;0.75;;;31.60;94.60;;;;;;1896880;75;21255;-81
2022/08/04 08:19:37;;;;;;;1.72;1.00;;;31.60;95.00;;;;;;1886997;75;21224;-81
2022/08/04 08:22:09;;;;;;;2.08;0.50;;;31.60;94.70;;;;;;1906373;75;21582;-80
2022/08/04 08:24:41;;;;;;;1.32;0.50;;;31.60;94.40;;;;;;1897174;75;21086;-80
2022/08/04 08:27:14;;;;;;;2.37;0.60;;;31.60;94.70;;;;;;1907491;74;21149;-81
2022/08/04 08:29:48;;;;;;;2.45;0.60;;;31.60;95.20;;;;;;1887639;75;21227;-80
2022/08/04 08:32:20;;;;;;;2.35;0.60;;;31.60;94.50;;;;;;1899649;75;21056;-80
2022/08/04 08:34:52;;;;;;;2.80;0.50;;;31.60;93.90;;;;;;1909844;75;21071;-81
2022/08/04 08:37:23;;;;;;;3.65;0.80;;;31.60;94.50;;;;;;1883822;76;21139;-78
2022/08/04 08:39:57;;;;;;;2.35;0.70;;;31.60;94.90;;;;;;1887536;75;21542;-81
2022/08/04 08:42:29;;;;;;;1.70;0.70;;;31.60;94.70;;;;;;1897605;75;21550;-79
2022/08/04 08:45:26;;;;;;;1.98;0.70;;;31.50;95.00;;;;;;1886166;75;21257;-79
2022/08/04 08:47:56;;;;;;;2.35;0.50;;;31.40;94.70;;;;;;1862095;76;21119;-79
2022/08/04 08:50:29;;;;;;;2.77;0.60;;;31.40;94.90;;;;;;1886337;75;21164;-79
2022/08/04 08:53:09;;;;;;;1.77;0.70;;;31.30;95.00;;;;;;1909097;75;21183;-78
2022/08/04 08:55:40;;;;;;;5.08;1.00;;;31.30;95.40;;;;;;1879955;75;21094;-80
2022/08/04 08:58:13;;;;;;;2.33;0.57;;;31.20;95.70;;;;;;1863075;76;21060;-80
2022/08/04 09:00:48;;;;;;;2.12;0.65;;;31.20;95.60;;;;;;1885907;75;22056;-80
2022/08/04 09:03:21;;;;;;;3.47;0.98;;;31.20;95.80;;;;;;1883523;75;21188;-80
2022/08/04 09:05:55;;;;;;;1.72;0.68;;;31.20;95.90;;;;;;1808578;78;21190;-81
2022/08/04 09:08:50;;;;;;;3.42;0.98;;;31.20;96.10;;;;;;1808617;78;21095;-79
2022/08/04 09:11:22;;;;;;;2.02;0.70;;;31.20;96.00;;;;;;1826688;77;21122;-78
2022/08/04 09:13:56;;;;;;;3.17;0.60;;;31.20;95.80;;;;;;1839345;77;21151;-81
2022/08/04 09:16:47;;;;;;;2.15;0.70;;;31.20;95.90;;;;;;1827490;77;21701;-79
2022/08/04 09:19:21;;;;;;;1.65;0.90;;;31.20;95.70;;;;;;1832462;77;21602;-80
2022/08/04 09:21:56;;;;;;;2.35;0.75;;;31.20;95.90;;;;;;1825457;78;21573;-79
2022/08/04 09:24:30;;;;;;;2.90;0.65;;;31.10;95.80;;;;;;1832203;77;21648;-80
2022/08/04 09:27:04;;;;;;;2.45;0.72;;;31.10;95.50;;;;;;1830458;77;21338;-79
2022/08/04 09:29:38;;;;;;;2.95;1.02;;;31.10;95.50;;;;;;1797738;77;21156;-80
2022/08/04 09:32:11;;;;;;;2.33;0.80;;;31.10;95.70;;;;;;1844854;77;21685;-81
2022/08/04 09:34:42;;;;;;;2.17;0.90;;;31.10;95.40;;;;;;1845567;77;21272;-79
2022/08/04 09:37:15;;;;;;;2.50;1.00;;;31.10;95.40;;;;;;1850748;76;21642;-79
2022/08/04 09:39:48;;;;;;;2.98;0.90;;;31.10;95.40;;;;;;1840366;76;21210;-79
2022/08/04 09:42:23;;;;;;;2.10;0.90;;;31.10;95.10;;;;;;1849222;76;21152;-79
2022/08/04 09:44:56;;;;;;;2.45;1.25;;;31.10;95.50;;;;;;1822885;78;21288;-80
2022/08/04 09:47:31;;;;;;;1.77;0.80;;;31.00;95.60;;;;;;1842200;77;22569;-80
2022/08/04 09:50:07;;;;;;;3.05;0.80;;;31.00;95.50;;;;;;1844056;76;21181;-80
2022/08/04 09:52:39;;;;;;;2.08;0.78;;;31.00;95.40;;;;;;1794746;77;21611;-80
2022/08/04 09:55:11;;;;;;;1.65;0.80;;;31.00;95.20;;;;;;1813165;79;21615;-80
2022/08/04 09:57:45;;;;;;;3.27;0.80;;;30.90;95.20;;;;;;1806606;78;21137;-80
2022/08/04 10:00:19;;;;;;;3.15;1.10;;;30.90;95.50;;;;;;1830443;77;21778;-79
2022/08/04 10:02:54;;;;;;;2.25;1.00;;;30.90;95.60;;;;;;1825144;77;21137;-80
2022/08/04 10:05:27;;;;;;;3.58;1.20;;;30.90;95.60;;;;;;1834970;77;21091;-81
2022/08/04 10:08:02;;;;;;;5.78;1.25;;;30.80;95.80;;;;;;1835479;77;21233;-81
2022/08/04 10:10:59;;;;;;;;;;;;;;;;;;;;;
2022/08/04 10:13:41;;;;;;;3.22;1.60;;;30.90;95.80;;;;;;1701504;79;21178;-80
2022/08/04 10:16:17;;;;;;;2.40;1.10;;;30.80;95.70;;;;;;1784717;78;21677;-79
2022/08/04 10:18:54;;;;;;;2.05;1.02;;;30.80;95.60;;;;;;1753564;81;21257;-80
2022/08/04 10:21:26;;;;;;;2.42;1.00;;;30.80;95.60;;;;;;1817737;77;21199;-80
2022/08/04 10:24:00;;;;;;;2.00;1.00;;;30.80;95.70;;;;;;1789826;79;21957;-81
2022/08/04 10:26:33;;;;;;;2.77;0.98;;;30.80;95.50;;;;;;1798631;78;21743;-81
2022/08/04 10:29:06;;;;;;;2.52;0.80;;;30.80;95.30;;;;;;1815499;78;21094;-80
2022/08/04 10:31:40;;;;;;;2.22;0.95;;;30.70;95.30;;;;;;1803554;78;21170;-81
2022/08/04 10:34:13;;;;;;;2.33;1.00;;;30.70;95.40;;;;;;1808527;78;21174;-81
2022/08/04 10:36:46;;;;;;;2.80;0.80;;;30.70;95.70;;;;;;1789193;79;21642;-80
2022/08/04 10:39:20;;;;;;;2.00;0.95;;;30.60;95.60;;;;;;1786026;79;21095;-81
2022/08/04 10:41:53;;;;;;;1.80;1.00;;;30.60;95.60;;;;;;1763898;79;21126;-80
2022/08/04 10:44:28;;;;;;;3.40;0.90;;;30.60;95.60;;;;;;1781894;79;21159;-80
2022/08/04 10:47:07;;;;;;;2.08;0.80;;;30.60;95.60;;;;;;1778636;79;21189;-80
2022/08/04 10:49:41;;;;;;;2.95;0.93;;;30.60;95.80;;;;;;1767563;78;21245;-81
2022/08/04 10:52:15;;;;;;;2.27;0.90;;;30.60;95.90;;;;;;1860850;77;21601;-79
2022/08/04 10:54:49;;;;;;;3.17;0.95;;;30.50;95.60;;;;;;1860535;77;21111;-81
2022/08/04 10:57:27;;;;;;;3.72;0.98;;;30.50;95.60;;;;;;1795658;80;21075;-80
2022/08/04 11:00:00;;;;;;;4.65;0.85;;;30.50;95.50;;;;;;1797615;80;21142;-79
2022/08/04 11:02:35;;;;;;;2.45;1.10;;;30.50;95.40;;;;;;1823039;77;21257;-80
2022/08/04 11:05:10;;;;;;;2.77;1.10;;;30.50;95.30;;;;;;1840273;77;21218;-79
2022/08/04 11:07:44;;;;;;;2.80;0.90;;;30.40;95.40;;;;;;1783695;80;21135;-80
2022/08/04 11:10:19;;;;;;;3.58;1.10;;;30.40;95.50;;;;;;1793475;78;21098;-80
2022/08/04 11:12:54;;;;;;;2.77;1.10;;;30.40;95.40;;;;;;1803086;78;21106;-82
2022/08/04 11:15:28;;;;;;;2.83;1.17;;;30.40;95.70;;;;;;1858984;77;21502;-80
2022/08/04 11:18:01;;;;;;;4.53;1.05;;;30.40;95.50;;;;;;1860676;76;22059;-80
2022/08/04 11:20:36;;;;;;;2.87;1.10;;;30.40;95.70;;;;;;1890880;75;21305;-79
2022/08/04 11:23:09;;;;;;;2.60;0.82;;;30.30;95.60;;;;;;1861604;75;21599;-78
2022/08/04 11:25:43;;;;;;;2.50;1.10;;;30.30;95.50;;;;;;1874337;75;21103;-78
2022/08/04 11:28:17;;;;;;;3.27;1.47;;;30.30;95.60;;;;;;1872586;75;21822;-79
2022/08/04 11:30:51;;;;;;;2.10;1.10;;;30.30;95.70;;;;;;1867392;75;21091;-79
2022/08/04 11:33:25;;;;;;;2.52;1.20;;;30.30;95.70;;;;;;1872231;75;21204;-79
2022/08/04 11:35:59;;;;;;;2.33;1.00;;;30.30;95.80;;;;;;1867635;75;21614;-80
2022/08/04 11:38:32;;;;;;;3.92;0.88;;;30.30;95.80;;;;;;1883119;75;21650;-79
2022/08/04 11:41:05;;;;;;;3.52;1.30;;;30.30;95.80;;;;;;1878598;75;21554;-80
2022/08/04 11:43:37;;;;;;;3.95;1.20;;;30.30;95.90;;;;;;1871538;75;21098;-80
2022/08/04 11:46:12;;;;;;;2.72;1.20;;;30.20;95.90;;;;;;1865465;75;21157;-80
2022/08/04 11:48:45;;;;;;;3.47;1.20;;;30.20;96.00;;;;;;1876898;75;21139;-80
2022/08/04 11:51:18;;;;;;;4.70;1.65;;;30.20;95.90;;;;;;1873661;75;21594;-80
2022/08/04 11:53:51;;;;;;;3.40;1.60;;;30.20;96.00;;;;;;1866721;76;21126;-82
2022/08/04 11:56:22;;;;;;;5.45;2.22;;;30.20;96.20;;;;;;1872153;75;21173;-81
2022/08/04 11:58:56;;;;;;;3.52;1.87;;;30.20;96.20;;;;;;1863536;75;21115;-79
2022/08/04 12:01:28;;;;;;;5.12;2.05;;;30.20;96.30;;;;;;1878956;75;21097;-80
2022/08/04 12:04:02;;;;;;;5.03;1.92;;;30.20;96.40;;;;;;1875698;75;21176;-80
2022/08/04 12:06:36;;;;;;;4.92;2.00;;;30.10;96.40;;;;;;1864960;75;21114;-80
2022/08/04 12:09:09;;;;;;;4.45;2.00;;;30.10;96.50;;;;;;1876369;75;21130;-80
2022/08/04 12:14:30;;;;;;;5.35;2.15;;;30.10;96.60;;;;;;1809127;77;21146;-80
2022/08/04 12:17:07;;;;;;;3.67;2.05;;;30.10;96.60;;;;;;1839601;77;21223;-81
2022/08/04 12:19:39;;;;;;;7.53;2.50;;;30.00;96.50;;;;;;1819339;76;21155;-79
2022/08/04 12:22:14;;;;;;;4.37;2.12;;;30.00;96.60;;;;;;1808739;77;21105;-80
2022/08/04 12:24:48;;;;;;;4.05;1.85;;;30.00;96.70;;;;;;1811840;77;21612;-80
2022/08/04 12:27:22;;;;;;;4.62;1.77;;;30.00;96.70;;;;;;1792085;78;21170;-80
2022/08/04 12:29:56;;;;;;;3.98;2.17;;;30.00;96.80;;;;;;1805668;78;21104;-80
2022/08/04 12:32:29;;;;;;;6.12;2.10;;;30.00;96.80;;;;;;1801444;79;21134;-81
2022/08/04 12:35:03;;;;;;;7.83;1.72;;;30.00;96.90;;;;;;1763212;80;21601;-79
2022/08/04 12:37:35;;;;;;;4.08;1.80;;;29.90;96.90;;;;;;1797487;78;21190;-79
2022/08/04 12:40:08;;;;;;;4.90;1.87;;;29.90;97.00;;;;;;1809072;78;21162;-82
2022/08/04 12:43:04;;;;;;;5.55;1.60;;;29.90;97.00;;;;;;1772225;80;21158;-81
2022/08/04 12:45:36;;;;;;;4.67;1.90;;;29.90;97.00;;;;;;1811927;79;21187;-79
2022/08/04 12:48:28;;;;;;;4.00;1.60;;;29.90;97.00;;;;;;1806607;79;21150;-82
2022/08/04 12:51:05;;;;;;;5.15;1.77;;;29.90;97.10;;;;;;1807948;78;21198;-80
2022/08/04 12:54:02;;;;;;;3.65;1.60;;;29.90;97.20;;;;;;1710440;83;21254;-81
2022/08/04 12:57:02;;;;;;;3.92;2.40;;;29.80;97.10;;;;;;1817642;78;21269;-81
2022/08/04 12:59:49;;;;;;;6.45;3.90;;;29.90;97.20;;;;;;1770818;80;21634;-81
2022/08/04 13:02:32;;;;;;;12.65;4.47;;;29.80;97.20;;;;;;1773169;80;21174;-81
2022/08/04 13:05:21;;;;;;;7.30;4.40;;;29.80;97.30;;;;;;1774335;80;21169;-82
2022/08/04 13:08:20;;;;;;;9.73;4.45;;;29.80;97.30;;;;;;1754025;80;21147;-81
2022/08/04 13:10:53;;;;;;;10.25;3.85;;;29.80;97.40;;;;;;1786804;79;21457;-78
2022/08/04 13:13:26;;;;;;;8.43;3.77;;;29.80;97.40;;;;;;1794168;78;21160;-79
2022/08/04 13:16:04;;;;;;;8.38;3.80;;;29.80;97.40;;;;;;1782527;79;21643;-83
2022/08/04 13:18:44;;;;;;;7.12;3.37;;;29.80;97.40;;;;;;1806289;78;21177;-81
2022/08/04 13:21:20;;;;;;;5.03;3.10;;;29.70;97.40;;;;;;1833042;77;21123;-80
2022/08/04 13:24:01;;;;;;;7.62;3.50;;;29.70;97.40;;;;;;1818093;77;21104;-80
2022/08/04 13:26:35;;;;;;;6.12;3.05;;;29.80;97.50;;;;;;1812748;77;21132;-83
2022/08/04 13:29:08;;;;;;;9.18;3.17;;;29.70;97.50;;;;;;1824008;77;21237;-79
2022/08/04 13:31:49;;;;;;;5.90;3.17;;;29.80;97.60;;;;;;1832224;76;21143;-80
2022/08/04 13:34:26;;;;;;;6.97;3.08;;;29.80;97.60;;;;;;1841322;76;21149;-80